Perham, Minnesota
Current Conditions -  °F | °C
As of 6:14 AM on Saturday 20 Dec 2014 (Local Time) from KADC Reporting Station
Haze Haze  
Wind Chill: 20°   Ceiling: 600
Heat Index: 28°   Visibility: 2.5mi
Dew Point: 27°   Wind: 8mph
Humidity: 93%   Direction: 200°SSW
Pressure: 30.04"   Gusts: NA
Location:  46.59°N, 95.57°W
Report Text: KADC 201214Z AUTO 20007KT 2 1/2SM BR OVC006 M02/M03 A3004 RMK AO2
Loading
Personal Weather Stations






























Interactive Weather Map New forecast layout! Learn more

10-Day Weather Forecast

Advertisements
Track Severe Weather on mobile